Time;durP1;ratioP1;P1;durP2;ratioP2;P2;SDS_P1;SDS_P2;PMS_P1;PMS_P2;Temp;Humidity;BMP_temperature;BMP_pressure;BME280_temperature;BME280_humidity;BME280_pressure;Samples;Min_cycle;Max_cycle;Signal;HPM_P1;HPM_P2
2022/02/11 00:07:07;;;;;;;25.10;13.27;;;4.30;99.90;;;-146.41;100.00;57768.22;5040968;28;20487;-68
2022/02/11 00:09:34;;;;;;;23.50;13.45;;;4.30;99.90;;;-146.41;100.00;57768.22;5040846;28;20124;-67
2022/02/11 00:12:03;;;;;;;20.17;12.45;;;4.20;99.90;;;-146.41;100.00;57768.22;5037122;28;20413;-68
2022/02/11 00:14:34;;;;;;;23.83;13.73;;;4.20;99.90;;;-146.41;100.00;57768.22;5042611;28;20561;-68
2022/02/11 00:17:01;;;;;;;22.83;12.40;;;4.20;99.90;;;-146.41;100.00;57768.22;5040902;28;20048;-68
2022/02/11 00:19:28;;;;;;;26.25;14.18;;;4.20;99.90;;;-146.41;100.00;57768.22;5042759;28;20077;-68
2022/02/11 00:21:55;;;;;;;23.05;13.52;;;4.10;99.90;;;-146.41;100.00;57768.22;5039043;28;20516;-68
2022/02/11 00:24:22;;;;;;;22.90;13.57;;;4.20;99.90;;;-146.41;100.00;57768.22;5042273;28;20526;-68
2022/02/11 00:27:09;;;;;;;31.35;15.23;;;4.10;99.90;;;-146.41;100.00;57768.22;5038627;28;20041;-68
2022/02/11 00:32:13;;;;;;;22.08;13.32;;;4.10;99.90;;;-146.41;100.00;57768.22;5036671;28;20449;-68
2022/02/11 00:34:52;;;;;;;27.30;14.57;;;4.20;99.90;;;-146.41;100.00;57768.22;5044674;28;20144;-68
2022/02/11 00:37:23;;;;;;;25.17;14.85;;;4.20;99.90;;;-146.41;100.00;57768.22;5039877;28;20460;-68
2022/02/11 00:53:43;;;;;;;19.85;11.93;;;4.30;99.90;;;-146.41;100.00;57768.22;5039034;28;20071;-67
2022/02/11 01:04:21;;;;;;;12.43;7.47;;;4.20;99.90;;;-146.41;100.00;57768.22;5043261;28;20128;-68
2022/02/11 01:06:49;;;;;;;13.27;6.18;;;4.10;99.90;;;-146.41;100.00;57768.22;5043787;28;20098;-67
2022/02/11 01:09:16;;;;;;;13.07;5.93;;;4.10;99.90;;;-146.41;100.00;57768.22;5045870;28;20124;-67
2022/02/11 01:14:13;;;;;;;6.85;4.28;;;3.90;99.90;;;-146.41;100.00;57768.22;5045240;28;20041;-68
2022/02/11 01:16:48;;;;;;;3.50;1.90;;;3.90;99.90;;;-146.41;100.00;57768.22;5044124;28;20358;-66
2022/02/11 01:21:54;;;;;;;4.65;2.05;;;3.60;99.90;;;-146.41;100.00;57768.22;5042336;28;20398;-66
2022/02/11 01:48:21;;;;;;;1.98;0.20;;;3.30;99.90;;;-146.41;100.00;57768.22;5036065;28;20131;-68
2022/02/11 02:02:37;;;;;;;0.10;0.10;;;3.20;99.90;;;-146.41;100.00;57768.22;5043364;28;20487;-68
2022/02/11 02:13:17;;;;;;;0.17;0.17;;;3.00;99.90;;;-146.41;100.00;57768.22;5044307;28;20123;-67
2022/02/11 02:26:46;;;;;;;0.25;0.20;;;3.20;99.90;;;-146.41;100.00;57768.22;5037250;28;20438;-68
2022/02/11 02:56:47;;;;;;;0.30;0.20;;;3.30;99.90;;;-146.41;100.00;57768.22;5042470;28;20267;-67
2022/02/11 03:51:23;;;;;;;4.22;1.58;;;2.90;99.90;;;-146.41;100.00;57768.22;5039577;28;20041;-68
2022/02/11 04:08:11;;;;;;;4.60;1.38;;;2.50;99.90;;;-146.41;100.00;57768.22;5042236;28;20128;-67
2022/02/11 04:57:00;;;;;;;5.22;1.63;;;1.60;99.90;;;-146.41;100.00;57768.22;5041155;28;20080;-66
2022/02/11 04:59:39;;;;;;;8.70;2.30;;;1.60;99.90;;;-146.41;100.00;57768.22;5044069;28;20059;-66
2022/02/11 05:02:06;;;;;;;7.40;2.42;;;1.70;99.90;;;-146.41;100.00;57768.22;5041036;28;20087;-66
2022/02/11 05:04:34;;;;;;;10.10;2.35;;;1.80;99.90;;;-146.41;100.00;57768.22;5045008;28;20731;-66
2022/02/11 05:07:03;;;;;;;6.07;2.42;;;1.90;99.90;;;-146.41;100.00;57768.22;5040491;28;20135;-67
2022/02/11 05:09:32;;;;;;;8.50;2.03;;;2.00;99.90;;;-146.41;100.00;57768.22;5037813;28;20460;-67
2022/02/11 05:11:59;;;;;;;6.25;2.53;;;2.00;99.90;;;-146.41;100.00;57768.22;5042361;28;20106;-67
2022/02/11 05:14:26;;;;;;;7.45;2.53;;;2.00;99.90;;;-146.41;100.00;57768.22;5040406;28;20055;-67
2022/02/11 05:16:53;;;;;;;9.73;3.13;;;2.00;99.90;;;-146.41;100.00;57768.22;5044922;28;20139;-67
2022/02/11 05:19:20;;;;;;;13.25;3.70;;;2.00;99.90;;;-146.41;100.00;57768.22;5042190;28;20483;-67
2022/02/11 05:21:47;;;;;;;8.18;2.70;;;1.90;99.90;;;-146.41;100.00;57768.22;5035430;28;20231;-67
2022/02/11 05:24:14;;;;;;;10.27;3.03;;;1.90;99.90;;;-146.41;100.00;57768.22;5037378;28;20084;-67
2022/02/11 05:26:41;;;;;;;10.88;2.83;;;1.90;99.90;;;-146.41;100.00;57768.22;5043344;28;20132;-67
2022/02/11 05:29:08;;;;;;;12.77;2.90;;;1.80;99.90;;;-146.41;100.00;57768.22;5058894;28;20057;-66
2022/02/11 05:31:35;;;;;;;11.27;3.08;;;1.70;99.90;;;-146.41;100.00;57768.22;5038308;28;20037;-67
2022/02/11 05:34:02;;;;;;;10.18;3.30;;;1.60;99.90;;;-146.41;100.00;57768.22;5039687;28;20120;-67
2022/02/11 05:36:29;;;;;;;11.80;3.58;;;1.60;99.90;;;-146.41;100.00;57768.22;5038302;28;20111;-66
2022/02/11 05:38:56;;;;;;;13.30;3.45;;;1.50;99.90;;;-146.41;100.00;57768.22;5044218;28;20127;-67
2022/02/11 05:41:23;;;;;;;10.73;3.13;;;1.50;99.90;;;-146.41;100.00;57768.22;5043204;28;20088;-67
2022/02/11 05:43:50;;;;;;;13.60;3.13;;;1.50;99.90;;;-146.41;100.00;57768.22;5041830;28;20136;-66
2022/02/11 05:46:17;;;;;;;11.27;3.70;;;1.60;99.90;;;-146.41;100.00;57768.22;5045194;28;20052;-67
2022/02/11 05:48:45;;;;;;;14.32;4.28;;;1.70;99.90;;;-146.41;100.00;57768.22;5041962;28;20076;-66
2022/02/11 05:51:13;;;;;;;17.98;4.63;;;1.70;99.90;;;-146.41;100.00;57768.22;5041776;28;20435;-67
2022/02/11 05:53:41;;;;;;;10.50;3.95;;;1.70;99.90;;;-146.41;100.00;57768.22;5044365;28;20083;-66
2022/02/11 05:56:07;;;;;;;10.02;3.90;;;1.70;99.90;;;-146.41;100.00;57768.22;5043555;28;20135;-66
2022/02/11 05:58:35;;;;;;;10.60;4.05;;;1.60;99.90;;;-146.41;100.00;57768.22;5044363;28;20456;-66
2022/02/11 06:01:02;;;;;;;14.50;5.38;;;1.60;99.90;;;-146.41;100.00;57768.22;5042476;28;20043;-66
2022/02/11 06:03:29;;;;;;;11.15;4.68;;;1.70;99.90;;;-146.41;100.00;57768.22;5043552;28;20139;-66
2022/02/11 06:05:56;;;;;;;13.10;4.47;;;1.70;99.90;;;-146.41;100.00;57768.22;5038514;28;20091;-66
2022/02/11 06:08:23;;;;;;;14.65;5.00;;;1.80;99.90;;;-146.41;100.00;57768.22;5042124;28;20136;-66
2022/02/11 06:10:50;;;;;;;11.18;3.92;;;1.80;99.90;;;-146.41;100.00;57768.22;5034312;28;20140;-67
2022/02/11 06:13:17;;;;;;;11.50;4.30;;;1.80;99.90;;;-146.41;100.00;57768.22;5040022;28;20404;-66
2022/02/11 06:15:45;;;;;;;12.00;4.20;;;1.90;99.90;;;-146.41;100.00;57768.22;5042483;28;20130;-67
2022/02/11 06:18:12;;;;;;;12.10;5.05;;;1.90;99.90;;;-146.41;100.00;57768.22;5043099;28;20041;-67
2022/02/11 06:20:39;;;;;;;14.15;5.00;;;2.00;99.90;;;-146.41;100.00;57768.22;5035277;28;20133;-67
2022/02/11 06:23:07;;;;;;;15.27;4.80;;;2.00;99.90;;;-146.41;100.00;57768.22;5038726;28;20080;-67
2022/02/11 06:25:34;;;;;;;13.25;4.47;;;2.10;99.90;;;-146.41;100.00;57768.22;5040072;28;20087;-67
2022/02/11 06:28:01;;;;;;;13.27;4.00;;;2.10;99.90;;;-146.41;100.00;57768.22;5042865;28;20067;-67
2022/02/11 06:30:28;;;;;;;12.57;4.43;;;2.10;99.90;;;-146.41;100.00;57768.22;5040508;28;20051;-66
2022/02/11 06:33:00;;;;;;;10.48;4.00;;;2.20;99.90;;;-146.41;100.00;57768.22;5053376;28;20413;-67
2022/02/11 06:35:34;;;;;;;10.52;4.35;;;2.10;99.90;;;-146.41;100.00;57768.22;5042641;28;20053;-67
2022/02/11 06:38:01;;;;;;;16.05;5.22;;;2.00;99.90;;;-146.41;100.00;57768.22;5042859;28;20448;-66
2022/02/11 06:40:29;;;;;;;12.02;4.47;;;1.80;99.90;;;-146.41;100.00;57768.22;5043512;28;20052;-67
2022/02/11 06:42:59;;;;;;;12.90;4.88;;;1.70;99.90;;;-146.41;100.00;57768.22;5040751;28;20203;-67
2022/02/11 06:45:27;;;;;;;9.85;4.85;;;1.60;99.90;;;-146.41;100.00;57768.22;5040836;28;20049;-67
2022/02/11 06:47:54;;;;;;;8.95;4.47;;;1.50;99.90;;;-146.41;100.00;57768.22;5039291;28;20517;-67
2022/02/11 06:50:21;;;;;;;18.00;5.35;;;1.50;99.90;;;-146.41;100.00;57768.22;5039522;28;20045;-67
2022/02/11 06:52:49;;;;;;;15.38;5.03;;;1.50;99.90;;;-146.41;100.00;57768.22;5039067;28;20053;-67
2022/02/11 06:55:16;;;;;;;12.38;4.25;;;1.40;99.90;;;-146.41;100.00;57768.22;5039051;28;20424;-67
2022/02/11 06:57:43;;;;;;;16.60;5.70;;;1.40;99.90;;;-146.41;100.00;57768.22;5042920;28;20094;-67
2022/02/11 07:00:14;;;;;;;18.63;4.88;;;1.40;99.90;;;-146.41;100.00;57768.22;5036284;28;20105;-67
2022/02/11 07:02:41;;;;;;;14.75;5.55;;;1.40;99.90;;;-146.41;100.00;57768.22;5038777;28;20068;-68
2022/02/11 07:05:09;;;;;;;17.58;5.65;;;1.40;99.90;;;-146.41;100.00;57768.22;5039032;28;20057;-67
2022/02/11 07:07:37;;;;;;;16.23;5.75;;;1.30;99.90;;;-146.41;100.00;57768.22;5041275;28;20115;-67
2022/02/11 07:10:04;;;;;;;14.02;4.80;;;1.40;99.90;;;-146.41;100.00;57768.22;5035714;28;20049;-67
2022/02/11 07:12:32;;;;;;;16.50;6.88;;;1.30;99.90;;;-146.41;100.00;57768.22;5041073;28;20068;-67
2022/02/11 07:14:59;;;;;;;13.43;5.05;;;1.30;99.90;;;-146.41;100.00;57768.22;5041286;28;20330;-66
2022/02/11 07:17:26;;;;;;;18.15;5.13;;;1.30;99.90;;;-146.41;100.00;57768.22;5041797;28;20041;-67
2022/02/11 07:19:53;;;;;;;17.08;6.53;;;1.40;99.90;;;-146.41;100.00;57768.22;5039766;28;20045;-67
2022/02/11 07:22:20;;;;;;;11.13;6.32;;;1.40;99.90;;;-146.41;100.00;57768.22;5037257;28;20470;-67
2022/02/11 07:24:51;;;;;;;14.80;6.13;;;1.30;99.90;;;-146.41;100.00;57768.22;5041017;28;20178;-67
2022/02/11 07:27:19;;;;;;;18.65;7.30;;;1.30;99.90;;;-146.41;100.00;57768.22;5035397;28;20045;-66
2022/02/11 07:29:46;;;;;;;14.38;6.47;;;1.30;99.90;;;-146.41;100.00;57768.22;5041344;28;20073;-66
2022/02/11 07:32:13;;;;;;;16.10;6.95;;;1.30;99.90;;;-146.41;100.00;57768.22;5040764;28;20463;-67
2022/02/11 07:34:40;;;;;;;22.85;8.18;;;1.20;99.90;;;-146.41;100.00;57768.22;5040996;28;20125;-66
2022/02/11 07:37:07;;;;;;;16.15;6.85;;;1.30;99.90;;;-146.41;100.00;57768.22;5038733;28;20060;-66
2022/02/11 07:39:53;;;;;;;16.55;6.93;;;1.30;99.90;;;-146.41;100.00;57768.22;5039025;28;20453;-66
2022/02/11 07:42:21;;;;;;;15.50;7.68;;;1.20;99.90;;;-146.41;100.00;57768.22;5040108;28;20099;-66
2022/02/11 07:44:48;;;;;;;17.52;7.00;;;1.30;99.90;;;-146.41;100.00;57768.22;5036769;28;20128;-66
2022/02/11 07:47:16;;;;;;;18.02;7.43;;;1.50;99.90;;;-146.41;100.00;57768.22;5042038;28;20135;-66
2022/02/11 07:49:43;;;;;;;17.60;6.13;;;1.70;99.90;;;-146.41;100.00;57768.22;5039368;28;20477;-66
2022/02/11 07:52:11;;;;;;;14.90;6.60;;;1.80;99.90;;;-146.41;100.00;57768.22;5035750;28;20113;-66
2022/02/11 07:54:38;;;;;;;16.70;7.32;;;1.90;99.90;;;-146.41;100.00;57768.22;5042169;28;20049;-67
2022/02/11 07:57:05;;;;;;;14.32;6.57;;;2.10;99.90;;;-146.41;100.00;57768.22;5038960;28;20099;-67
2022/02/11 07:59:37;;;;;;;16.17;7.00;;;2.20;99.90;;;-146.41;100.00;57768.22;5036154;28;20053;-66
2022/02/11 08:02:04;;;;;;;16.38;7.30;;;2.20;99.90;;;-146.41;100.00;57768.22;5039624;28;20092;-67
2022/02/11 08:04:32;;;;;;;16.30;7.10;;;2.20;99.90;;;-146.41;100.00;57768.22;5037548;28;20081;-67
2022/02/11 08:06:59;;;;;;;18.35;8.10;;;2.20;99.90;;;-146.41;100.00;57768.22;5034685;28;20091;-67
2022/02/11 08:09:26;;;;;;;18.70;8.88;;;2.20;99.90;;;-146.41;100.00;57768.22;5040732;28;20140;-66
2022/02/11 08:11:55;;;;;;;14.63;6.43;;;2.30;99.90;;;-146.41;100.00;57768.22;5036123;28;20049;-66
2022/02/11 08:14:22;;;;;;;20.90;8.30;;;2.30;99.90;;;-146.41;100.00;57768.22;5041513;28;20485;-67
2022/02/11 08:16:50;;;;;;;18.08;7.30;;;2.40;99.90;;;-146.41;100.00;57768.22;5047612;28;20048;-67
2022/02/11 08:19:19;;;;;;;21.05;7.68;;;2.30;99.90;;;-146.41;100.00;57768.22;5039544;28;20065;-66
2022/02/11 08:21:47;;;;;;;15.98;7.97;;;2.40;99.90;;;-146.41;100.00;57768.22;5037476;28;20166;-67
2022/02/11 08:24:14;;;;;;;17.20;8.48;;;2.40;99.90;;;-146.41;100.00;57768.22;5049351;28;20504;-67
2022/02/11 08:26:42;;;;;;;20.88;8.50;;;2.50;99.90;;;-146.41;100.00;57768.22;5038194;28;20523;-66
2022/02/11 08:29:12;;;;;;;19.23;9.10;;;2.60;99.90;;;-146.41;100.00;57768.22;5053561;28;20148;-67
2022/02/11 08:31:41;;;;;;;24.50;10.23;;;2.60;99.90;;;-146.41;100.00;57768.22;5040475;28;20422;-67
2022/02/11 08:34:08;;;;;;;19.95;9.15;;;2.70;99.90;;;-146.41;100.00;57768.22;5038193;28;20053;-67
2022/02/11 08:36:35;;;;;;;23.52;9.95;;;2.90;99.90;;;-146.41;100.00;57768.22;5043705;28;20100;-67
2022/02/11 08:39:02;;;;;;;22.83;9.93;;;2.90;99.90;;;-146.41;100.00;57768.22;5038942;28;20077;-66
2022/02/11 08:41:29;;;;;;;18.08;8.95;;;2.90;99.90;;;-146.41;100.00;57768.22;5037079;28;20599;-66
2022/02/11 08:43:56;;;;;;;19.52;9.43;;;2.80;99.90;;;-146.41;100.00;57768.22;5048922;28;20132;-66
2022/02/11 08:46:24;;;;;;;22.15;9.40;;;2.60;99.90;;;-146.41;100.00;57768.22;5040713;28;20091;-67
2022/02/11 08:48:51;;;;;;;23.45;9.60;;;2.60;99.90;;;-146.41;100.00;57768.22;5036464;28;20097;-66
2022/02/11 08:51:18;;;;;;;19.55;9.38;;;2.60;99.90;;;-146.41;100.00;57768.22;5032335;28;20465;-67
2022/02/11 08:53:45;;;;;;;20.63;8.50;;;2.70;99.90;;;-146.41;100.00;57768.22;5040211;28;20037;-66
2022/02/11 08:56:12;;;;;;;15.95;7.93;;;2.90;99.90;;;-146.41;100.00;57768.22;5049574;28;20081;-67
2022/02/11 08:58:39;;;;;;;21.92;8.95;;;3.00;99.90;;;-146.41;100.00;57768.22;5038019;28;20084;-67
2022/02/11 09:01:07;;;;;;;21.13;8.50;;;3.20;99.90;;;-146.41;100.00;57768.22;5036383;28;20080;-66
2022/02/11 09:03:35;;;;;;;18.27;7.57;;;3.30;99.90;;;-146.41;100.00;57768.22;5038745;28;20057;-67
2022/02/11 09:06:07;;;;;;;19.25;7.43;;;3.40;99.90;;;-146.41;100.00;57768.22;5039822;28;20053;-66
2022/02/11 09:08:35;;;;;;;22.17;8.88;;;3.40;99.90;;;-146.41;100.00;57768.22;5033583;28;20442;-67
2022/02/11 09:11:08;;;;;;;21.00;7.88;;;3.30;99.90;;;-146.41;100.00;57768.22;5037477;28;20045;-67
2022/02/11 09:13:36;;;;;;;22.65;7.45;;;3.30;99.90;;;-146.41;100.00;57768.22;5039859;28;20131;-67
2022/02/11 09:16:03;;;;;;;19.73;7.55;;;3.40;99.90;;;-146.41;100.00;57768.22;5039153;28;20530;-67
2022/02/11 09:18:31;;;;;;;18.48;7.93;;;3.40;99.90;;;-146.41;100.00;57768.22;5039807;28;20049;-66
2022/02/11 09:20:58;;;;;;;18.02;7.72;;;3.40;99.90;;;-146.41;100.00;57768.22;5038486;28;20385;-67
2022/02/11 09:23:26;;;;;;;18.30;8.07;;;3.50;99.90;;;-146.41;100.00;57768.22;5029395;28;20052;-66
2022/02/11 09:25:53;;;;;;;21.02;8.05;;;3.60;99.90;;;-146.41;100.00;57768.22;5037343;28;20139;-67
2022/02/11 09:28:20;;;;;;;16.63;7.63;;;3.70;99.90;;;-146.41;100.00;57768.22;5053176;28;20377;-66
2022/02/11 09:30:47;;;;;;;17.60;6.47;;;3.60;99.90;;;-146.41;100.00;57768.22;5040073;28;20521;-67
2022/02/11 09:33:16;;;;;;;23.77;7.65;;;3.40;99.90;;;-146.41;100.00;57768.22;5040552;28;20206;-67
2022/02/11 09:35:45;;;;;;;20.00;6.57;;;3.50;99.90;;;-146.41;100.00;57768.22;5051543;28;20053;-67
2022/02/11 09:38:13;;;;;;;25.73;10.77;;;3.70;99.90;;;-146.41;100.00;57768.22;5039884;28;20068;-67
2022/02/11 09:40:44;;;;;;;16.38;6.07;;;3.90;99.90;;;-146.41;100.00;57768.22;5041023;28;20579;-66
2022/02/11 09:43:12;;;;;;;18.80;6.50;;;4.00;99.90;;;-146.41;100.00;57768.22;5042178;28;20067;-66
2022/02/11 09:45:42;;;;;;;15.35;6.90;;;4.10;99.90;;;-146.41;100.00;57768.22;5037087;28;20041;-67
2022/02/11 09:48:08;;;;;;;14.27;5.75;;;4.20;99.90;;;-146.41;100.00;57768.22;5043810;28;20045;-67
2022/02/11 09:50:35;;;;;;;15.57;6.28;;;4.10;99.90;;;-146.41;100.00;57768.22;5040401;28;20097;-67
2022/02/11 09:53:09;;;;;;;18.42;6.53;;;4.10;99.90;;;-146.41;100.00;57768.22;5056636;28;20465;-67
2022/02/11 09:55:40;;;;;;;21.60;6.95;;;4.00;99.90;;;-146.41;100.00;57768.22;5054951;28;20413;-67
2022/02/11 09:58:16;;;;;;;14.90;6.63;;;4.00;99.90;;;-146.41;100.00;57768.22;5045609;28;20055;-67
2022/02/11 10:00:49;;;;;;;15.35;6.05;;;4.00;99.90;;;-146.41;100.00;57768.22;5043410;28;20049;-66
2022/02/11 10:03:23;;;;;;;18.42;7.25;;;4.20;99.90;;;-146.41;100.00;57768.22;5044036;28;20037;-67
2022/02/11 10:06:04;;;;;;;17.95;6.53;;;4.20;99.90;;;-146.41;100.00;57768.22;5040864;28;20060;-66
2022/02/11 10:08:38;;;;;;;17.02;7.72;;;4.30;99.90;;;-146.41;100.00;57768.22;5040897;28;20049;-67
2022/02/11 10:11:08;;;;;;;14.20;5.75;;;4.20;99.90;;;-146.41;100.00;57768.22;5037660;28;20053;-66
2022/02/11 10:13:40;;;;;;;16.73;6.82;;;4.20;99.90;;;-146.41;100.00;57768.22;5042822;28;20494;-66
2022/02/11 10:16:10;;;;;;;16.52;7.65;;;4.10;99.90;;;-146.41;100.00;57768.22;5026143;28;20048;-66
2022/02/11 10:18:45;;;;;;;20.48;7.00;;;4.00;99.90;;;-146.41;100.00;57768.22;5040528;28;20137;-66
2022/02/11 10:21:23;;;;;;;20.63;7.15;;;4.00;99.90;;;-146.41;100.00;57768.22;5039359;28;20355;-66
2022/02/11 10:23:56;;;;;;;15.60;5.72;;;3.90;99.90;;;-146.41;100.00;57768.22;5039685;28;20045;-66
2022/02/11 10:26:24;;;;;;;17.77;6.63;;;4.00;99.90;;;-146.41;100.00;57768.22;5038286;28;20111;-66
2022/02/11 10:28:56;;;;;;;11.65;5.80;;;4.10;99.90;;;-146.41;100.00;57768.22;5039862;28;20049;-66
2022/02/11 10:31:29;;;;;;;14.90;6.18;;;4.30;99.90;;;-146.41;100.00;57768.22;5036850;28;20090;-66
2022/02/11 10:33:56;;;;;;;17.73;5.80;;;4.70;99.90;;;-146.41;100.00;57768.22;5038350;28;20668;-66
2022/02/11 10:36:29;;;;;;;14.15;5.45;;;4.90;99.90;;;-146.41;100.00;57768.22;5038452;28;20037;-65
2022/02/11 10:39:27;;;;;;;12.35;5.40;;;5.00;99.90;;;-146.41;100.00;57768.22;5041769;28;20109;-66
2022/02/11 10:41:57;;;;;;;12.77;5.65;;;5.00;99.90;;;-146.41;100.00;57768.22;5040346;28;20083;-65
2022/02/11 10:44:29;;;;;;;14.40;4.45;;;5.10;99.90;;;-146.41;100.00;57768.22;5042531;28;20071;-68
2022/02/11 10:47:07;;;;;;;13.88;5.20;;;5.00;99.90;;;-146.41;100.00;57768.22;5038450;28;20055;-66
2022/02/11 10:49:41;;;;;;;16.08;5.10;;;4.90;99.90;;;-146.41;100.00;57768.22;5040694;28;20068;-66
2022/02/11 10:52:28;;;;;;;15.05;5.78;;;5.00;99.90;;;-146.41;100.00;57768.22;5051246;28;20073;-66
2022/02/11 10:54:56;;;;;;;12.32;4.65;;;5.30;99.90;;;-146.41;100.00;57768.22;5038444;28;20049;-66
2022/02/11 10:57:27;;;;;;;15.00;5.35;;;5.30;99.90;;;-146.41;100.00;57768.22;5039482;28;20045;-66
2022/02/11 11:00:00;;;;;;;16.10;5.75;;;5.30;99.90;;;-146.41;100.00;57768.22;5042586;28;20072;-66
2022/02/11 11:02:28;;;;;;;10.85;4.68;;;5.20;99.90;;;-146.41;100.00;57768.22;5042941;28;20118;-66
2022/02/11 11:04:55;;;;;;;17.27;5.80;;;5.20;99.90;;;-146.41;100.00;57768.22;5042500;28;20300;-66
2022/02/11 11:07:27;;;;;;;13.68;5.07;;;5.30;99.90;;;-146.41;100.00;57768.22;5041228;28;20523;-67
2022/02/11 11:10:17;;;;;;;11.55;4.68;;;5.40;99.90;;;-146.41;100.00;57768.22;5041428;28;20041;-66
2022/02/11 11:12:56;;;;;;;13.30;4.50;;;5.40;99.90;;;-146.41;100.00;57768.22;5039104;28;20147;-66
2022/02/11 11:15:26;;;;;;;17.85;4.47;;;5.30;99.90;;;-146.41;100.00;57768.22;5035760;28;20053;-66
2022/02/11 11:17:56;;;;;;;12.60;4.72;;;5.20;99.90;;;-146.41;100.00;57768.22;5034966;28;20136;-66
2022/02/11 11:20:26;;;;;;;16.08;4.68;;;5.00;99.90;;;-146.41;100.00;57768.22;5037728;28;20080;-66
2022/02/11 11:23:04;;;;;;;16.13;6.07;;;5.00;99.90;;;-146.41;100.00;57768.22;5051619;28;20110;-66
2022/02/11 11:25:54;;;;;;;16.95;5.55;;;5.20;99.90;;;-146.41;100.00;57768.22;5043890;28;20050;-67
2022/02/11 11:28:50;;;;;;;9.23;4.45;;;5.50;99.90;;;-146.41;100.00;57768.22;5030884;28;20069;-66
2022/02/11 11:31:29;;;;;;;10.10;4.30;;;5.90;99.90;;;-146.41;100.00;57768.22;5041425;28;20049;-66
2022/02/11 11:34:14;;;;;;;14.18;3.67;;;5.90;99.90;;;-146.41;100.00;57768.22;5038946;28;20112;-67
2022/02/11 11:36:58;;;;;;;10.68;4.45;;;5.80;99.90;;;-146.41;100.00;57768.22;5033543;28;20052;-67
2022/02/11 11:39:25;;;;;;;13.73;4.03;;;5.80;99.90;;;-146.41;100.00;57768.22;5033586;28;20134;-66
2022/02/11 11:42:14;;;;;;;13.68;3.10;;;5.80;99.90;;;-146.41;100.00;57768.22;5038132;28;20559;-66
2022/02/11 11:44:52;;;;;;;14.48;2.75;;;5.80;99.90;;;-146.41;100.00;57768.22;5041654;28;20052;-66
2022/02/11 11:47:35;;;;;;;11.65;2.55;;;6.10;99.90;;;-146.41;100.00;57768.22;5042835;28;20045;-66
2022/02/11 11:50:06;;;;;;;14.38;3.38;;;6.30;99.90;;;-146.41;100.00;57768.22;5036119;28;20049;-66
2022/02/11 11:52:46;;;;;;;16.45;5.03;;;6.30;99.90;;;-146.41;100.00;57768.22;5036036;28;20152;-66
2022/02/11 11:55:23;;;;;;;11.10;2.60;;;6.20;99.90;;;-146.41;100.00;57768.22;5043016;28;20053;-66
2022/02/11 11:57:52;;;;;;;8.38;2.38;;;5.90;99.90;;;-146.41;100.00;57768.22;5041198;28;20482;-66
2022/02/11 12:00:41;;;;;;;13.75;2.17;;;5.80;99.90;;;-146.41;100.00;57768.22;5041449;28;20059;-66
2022/02/11 12:03:10;;;;;;;12.18;2.53;;;5.80;99.90;;;-146.41;100.00;57768.22;5038915;28;20071;-66
2022/02/11 12:05:53;;;;;;;15.85;2.72;;;5.80;99.90;;;-146.41;100.00;57768.22;5036200;28;20122;-66
2022/02/11 12:08:29;;;;;;;11.23;3.20;;;5.80;99.90;;;-146.41;100.00;57768.22;5059657;28;20139;-66
2022/02/11 12:10:57;;;;;;;12.07;2.13;;;5.80;99.90;;;-146.41;100.00;57768.22;5039398;28;20422;-66
2022/02/11 12:13:25;;;;;;;10.90;2.55;;;5.80;99.90;;;-146.41;100.00;57768.22;5042007;28;20049;-66
2022/02/11 12:15:52;;;;;;;13.25;2.40;;;5.80;99.90;;;-146.41;100.00;57768.22;5038809;28;20420;-66
2022/02/11 12:18:19;;;;;;;13.43;2.80;;;5.80;99.90;;;-146.41;100.00;57768.22;5035119;28;20080;-66
2022/02/11 12:20:46;;;;;;;14.02;4.63;;;5.90;99.90;;;-146.41;100.00;57768.22;5038816;28;20134;-66
2022/02/11 12:28:46;;;;;;;8.63;2.33;;;6.00;99.90;;;-146.41;100.00;57768.22;5038054;28;20469;-66
2022/02/11 12:31:23;;;;;;;15.02;2.63;;;6.10;99.90;;;-146.41;100.00;57768.22;5026240;28;20140;-66
2022/02/11 12:33:50;;;;;;;11.38;2.10;;;6.10;99.90;;;-146.41;100.00;57768.22;5043282;28;21095;-66
2022/02/11 12:36:18;;;;;;;15.57;2.33;;;6.00;99.90;;;-146.41;100.00;57768.22;5038363;28;20091;-66
2022/02/11 12:38:56;;;;;;;16.50;2.90;;;6.00;99.90;;;-146.41;100.00;57768.22;5039654;28;20131;-66
2022/02/11 12:41:24;;;;;;;12.27;2.42;;;6.10;99.90;;;-146.41;100.00;57768.22;5040565;28;20073;-66
2022/02/11 12:43:58;;;;;;;17.23;3.20;;;6.10;99.90;;;-146.41;100.00;57768.22;5039584;28;20049;-66
2022/02/11 12:46:25;;;;;;;11.10;1.92;;;6.10;99.90;;;-146.41;100.00;57768.22;5041651;28;20189;-66
2022/02/11 12:48:59;;;;;;;10.75;2.60;;;6.30;99.90;;;-146.41;100.00;57768.22;5042235;28;20079;-66
2022/02/11 12:51:27;;;;;;;12.00;2.30;;;6.40;99.90;;;-146.41;100.00;57768.22;5040847;28;20497;-67
2022/02/11 12:54:05;;;;;;;8.73;1.95;;;6.30;99.90;;;-146.41;100.00;57768.22;5039460;28;20109;-67
2022/02/11 12:56:35;;;;;;;11.40;2.22;;;6.10;99.90;;;-146.41;100.00;57768.22;5038304;28;20120;-67
2022/02/11 12:59:08;;;;;;;19.45;4.07;;;6.00;99.90;;;-146.41;100.00;57768.22;5037899;28;20046;-67
2022/02/11 13:01:35;;;;;;;12.38;2.65;;;6.30;99.90;;;-146.41;100.00;57768.22;5036839;28;20053;-67
2022/02/11 13:04:03;;;;;;;10.73;2.60;;;6.30;99.90;;;-146.41;100.00;57768.22;5043419;28;20470;-67
2022/02/11 13:06:35;;;;;;;14.27;2.60;;;6.40;99.90;;;-146.41;100.00;57768.22;5036157;28;20063;-67
2022/02/11 13:09:07;;;;;;;10.18;2.13;;;6.50;99.90;;;-146.41;100.00;57768.22;5054448;28;20064;-67
2022/02/11 13:11:55;;;;;;;18.50;2.72;;;6.50;99.90;;;-146.41;100.00;57768.22;5039573;28;20090;-67
2022/02/11 13:14:22;;;;;;;10.75;1.80;;;6.70;99.90;;;-146.41;100.00;57768.22;5040897;28;20087;-67
2022/02/11 13:16:49;;;;;;;11.20;2.25;;;7.00;99.90;;;-146.41;100.00;57768.22;5045179;28;20045;-66
2022/02/11 13:19:17;;;;;;;10.18;1.45;;;7.00;99.90;;;-146.41;100.00;57768.22;5036591;28;20465;-66
2022/02/11 13:21:45;;;;;;;18.25;1.83;;;7.10;99.90;;;-146.41;100.00;57768.22;5058069;28;20490;-67
2022/02/11 13:24:12;;;;;;;13.13;2.78;;;7.20;99.90;;;-146.41;100.00;57768.22;5041871;28;20496;-66
2022/02/11 13:26:40;;;;;;;7.07;1.77;;;7.40;99.90;;;-146.41;100.00;57768.22;5043384;28;20049;-67
2022/02/11 13:29:13;;;;;;;9.57;1.80;;;7.60;99.90;;;-146.41;100.00;57768.22;5045882;28;20120;-66
2022/02/11 13:31:53;;;;;;;9.55;1.67;;;8.10;99.90;;;-146.41;100.00;57768.22;5045828;28;20132;-66
2022/02/11 13:34:20;;;;;;;9.20;1.60;;;8.30;99.90;;;-146.41;100.00;57768.22;5044802;28;20042;-66
2022/02/11 13:36:50;;;;;;;8.68;1.90;;;8.30;99.90;;;-146.41;100.00;57768.22;5040636;28;20055;-67
2022/02/11 13:39:32;;;;;;;11.38;1.98;;;8.00;99.90;;;-146.41;100.00;57768.22;5044382;28;20122;-65
2022/02/11 13:42:14;;;;;;;14.38;1.58;;;7.90;99.90;;;-146.41;100.00;57768.22;5040628;28;20440;-66
2022/02/11 13:45:00;;;;;;;13.15;1.90;;;7.70;99.90;;;-146.41;100.00;57768.22;5043214;28;20057;-66
2022/02/11 13:47:28;;;;;;;13.10;1.98;;;8.40;99.90;;;-146.41;100.00;57768.22;5039021;28;20509;-66
2022/02/11 13:50:06;;;;;;;9.70;1.70;;;8.60;99.90;;;-146.41;100.00;57768.22;5040287;28;20068;-66
2022/02/11 13:53:03;;;;;;;9.55;1.40;;;8.80;99.90;;;-146.41;100.00;57768.22;5039135;28;20400;-66
2022/02/11 13:55:35;;;;;;;11.27;1.92;;;9.70;98.40;;;-146.41;100.00;57768.22;5042364;28;20110;-66
2022/02/11 13:58:16;;;;;;;9.60;2.22;;;10.70;97.20;;;-146.41;100.00;57768.22;5037890;28;20088;-66
2022/02/11 14:00:43;;;;;;;11.45;1.90;;;12.50;94.40;;;-146.41;100.00;57768.22;5039926;28;20111;-67
2022/02/11 14:03:29;;;;;;;12.52;2.05;;;13.10;89.80;;;-146.41;100.00;57768.22;5037194;28;20432;-67
2022/02/11 14:06:01;;;;;;;4.97;1.35;;;14.40;88.40;;;-146.41;100.00;57768.22;5044848;28;20120;-67
2022/02/11 14:08:43;;;;;;;8.38;1.35;;;15.50;83.30;;;-146.41;100.00;57768.22;5037975;28;20140;-66
2022/02/11 14:11:16;;;;;;;9.07;1.75;;;15.60;79.10;;;-146.41;100.00;57768.22;5041437;28;20073;-67